Home > Products > Valid Products > TAF

000
FTUS44 KLZK 021733
TAFPBF
TAF
KPBF 021733Z 0218/0318 16005KT P6SM SCT050 SCT250
     FM030000 VRB03KT P6SM SCT250=



000
FTUS44 KLZK 021733
TAFHRO
TAF
KHRO 021733Z 0218/0318 23006KT P6SM SCT050 SCT250
     FM030000 23003KT P6SM SCT250=



000
FTUS44 KLZK 021733
TAFHOT
TAF
KHOT 021733Z 0218/0318 23005KT P6SM SCT050 SCT250
     FM030000 VRB03KT P6SM SCT250=



000
FTUS44 KLZK 021733
TAFLIT
TAF
KLIT 021733Z 0218/0318 16006KT P6SM SCT050 SCT250
     FM030000 18003KT P6SM SCT250=



000
FTUS44 KLZK 021127
TAFLIT
TAF
KLIT 021127Z 0212/0312 00000KT P6SM BKN250
     FM021500 18006KT P6SM SCT250
     FM030000 17003KT P6SM SCT250=



000
FTUS44 KLZK 021127
TAFPBF
TAF
KPBF 021127Z 0212/0312 00000KT P6SM BKN250
     FM021500 12006KT P6SM SCT250
     FM030000 11003KT P6SM SCT250=



000
FTUS44 KLZK 021127
TAFPBF
TAF
KPBF 021127Z 0212/0312 00000KT P6SM BKN250
     FM021500 12006KT P6SM SCT250
     FM030000 11003KT P6SM SCT250=



000
FTUS44 KLZK 021127
TAFLIT
TAF
KLIT 021127Z 0212/0312 00000KT P6SM BKN250
     FM021500 18006KT P6SM SCT250
     FM030000 17003KT P6SM SCT250=



000
FTUS44 KLZK 021127
TAFHRO
TAF
KHRO 021127Z 0212/0312 25004KT P6SM SCT250
     FM021500 23006KT P6SM SCT250
     FM030000 23003KT P6SM SCT250=



000
FTUS44 KLZK 021127
TAFHOT
TAF
KHOT 021127Z 0212/0312 00000KT P6SM BKN250
     FM021500 21005KT P6SM SCT250
     FM030000 09003KT P6SM SCT250=



000
FTUS44 KLZK 020535
TAFHOT
TAF
KHOT 020535Z 0206/0306 00000KT P6SM SCT250
     FM021500 21005KT P6SM SCT250
     FM030000 09003KT P6SM SCT250=



000
FTUS44 KLZK 020535
TAFHRO
TAF
KHRO 020535Z 0206/0306 00000KT P6SM SKC
     FM021500 23006KT P6SM SCT250
     FM030000 23003KT P6SM SCT250=



000
FTUS44 KLZK 020535
TAFPBF
TAF
KPBF 020535Z 0206/0306 00000KT P6SM BKN250
     FM021500 15006KT P6SM SCT250
     FM030000 12003KT P6SM SCT250=



000
FTUS44 KLZK 020535
TAFLIT
TAF
KLIT 020535Z 0206/0306 00000KT P6SM SCT250
     FM021500 18006KT P6SM SCT250
     FM030000 17003KT P6SM SCT250=



000
FTUS44 KLZK 012335
TAFHOT
TAF
KHOT 012335Z 0200/0224 VRB03KT P6SM SCT250
     FM021500 20005KT P6SM SCT250=



000
FTUS44 KLZK 012335
TAFLIT
TAF
KLIT 012335Z 0200/0224 15005KT P6SM SCT250
     FM020100 VRB03KT P6SM SCT250
     FM021500 17006KT P6SM SCT250=



000
FTUS44 KLZK 012335
TAFPBF
TAF
KPBF 012335Z 0200/0224 08005KT P6SM SCT250
     FM020100 VRB03KT P6SM SCT250
     FM021500 15006KT P6SM SCT250=



000
FTUS44 KLZK 012335
TAFHRO
TAF
KHRO 012335Z 0200/0224 00000KT P6SM SCT250
     FM021500 23006KT P6SM SCT250=



000
FTUS44 KLZK 012335
TAFHOT
TAF
KHOT 012335Z 0200/0224 VRB03KT P6SM SCT250
     FM021500 20005KT P6SM SCT250=



000
FTUS44 KLZK 012335
TAFHRO
TAF
KHRO 012335Z 0200/0224 00000KT P6SM SCT250
     FM021500 23006KT P6SM SCT250=



000
FTUS44 KLZK 012335
TAFPBF
TAF
KPBF 012335Z 0200/0224 08005KT P6SM SCT250
     FM020100 VRB03KT P6SM SCT250
     FM021500 15006KT P6SM SCT250=



000
FTUS44 KLZK 012335
TAFLIT
TAF
KLIT 012335Z 0200/0224 15005KT P6SM SCT250
     FM020100 VRB03KT P6SM SCT250
     FM021500 17006KT P6SM SCT250=



000
FTUS44 KLZK 011730
TAFHRO
TAF
KHRO 011730Z 0118/0218 00000KT P6SM SKC
     FM020000 26003KT P6SM SCT250
     FM021600 19005KT P6SM SCT250=



000
FTUS44 KLZK 011730
TAFHRO
TAF
KHRO 011730Z 0118/0218 00000KT P6SM SKC
     FM020000 26003KT P6SM SCT250
     FM021600 19005KT P6SM SCT250=



000
FTUS44 KLZK 011730
TAFPBF
TAF
KPBF 011730Z 0118/0218 10005KT P6SM SKC
     FM020000 VRB03KT P6SM SCT250=



000
FTUS44 KLZK 011730
TAFLIT
TAF
KLIT 011730Z 0118/0218 VRB04KT P6SM SCT050
     FM020000 VRB03KT P6SM SCT250
     FM021300 00000KT P6SM FEW050=



000
FTUS44 KLZK 011730
TAFHOT
TAF
KHOT 011730Z 0118/0218 16007KT P6SM SKC
     FM020000 VRB03KT P6SM SCT250
     FM021600 19004KT P6SM SKC=



000
FTUS44 KLZK 011126
TAFLIT
TAF
KLIT 011126Z 0112/0212 00000KT P6SM SCT250
     FM011400 07007KT P6SM SCT250
     FM020000 12003KT P6SM SCT250=



000
FTUS44 KLZK 011126
TAFPBF
TAF
KPBF 011126Z 0112/0212 01003KT P6SM SCT250
     FM011400 06007KT P6SM SCT250
     FM020000 06003KT P6SM SCT250=



000
FTUS44 KLZK 011126
TAFHOT
TAF
KHOT 011126Z 0112/0212 00000KT P6SM SCT250
     FM011400 09005KT P6SM SCT250
     FM020000 09003KT P6SM SCT250=



000
FTUS44 KLZK 011126
TAFHRO
TAF
KHRO 011126Z 0112/0212 28003KT P6SM SKC
     FM011400 33005KT P6SM SCT250
     FM020000 26003KT P6SM SCT250=



000
FTUS44 KLZK 010528
TAFPBF
TAF
KPBF 010528Z 0106/0206 01003KT P6SM SCT250
     FM011400 05007KT P6SM SCT250
     FM020000 06003KT P6SM SCT250=



000
FTUS44 KLZK 010528
TAFHOT
TAF
KHOT 010528Z 0106/0206 00000KT P6SM OVC250
     FM011400 09005KT P6SM SCT250
     FM020000 09003KT P6SM SCT250=



000
FTUS44 KLZK 010528
TAFHRO
TAF
KHRO 010528Z 0106/0206 28003KT P6SM OVC250
     FM011400 33005KT P6SM SCT250
     FM020000 26003KT P6SM SCT250=



000
FTUS44 KLZK 010528
TAFLIT
TAF
KLIT 010528Z 0106/0206 00000KT P6SM OVC250
     FM011400 07007KT P6SM SCT250
     FM020000 12003KT P6SM SCT250=



000
FTUS44 KLZK 312338
TAFLIT
TAF
KLIT 312338Z 0100/0124 07005KT P6SM SKC
     FM010100 VRB03KT P6SM SCT250
     FM011400 08006KT P6SM SCT250=



000
FTUS44 KLZK 312338
TAFPBF
TAF
KPBF 312338Z 0100/0124 03006KT P6SM SKC
     FM010100 VRB03KT P6SM SCT250
     FM011400 06007KT P6SM SCT250=



000
FTUS44 KLZK 312338
TAFHRO
TAF
KHRO 312338Z 0100/0124 VRB03KT P6SM SCT250
     FM011400 33004KT P6SM SCT250=



000
FTUS44 KLZK 312338
TAFHOT
TAF
KHOT 312338Z 0100/0124 10006KT P6SM SKC
     FM010100 VRB03KT P6SM SCT250
     FM011400 10006KT P6SM SCT250=



000
FTUS44 KLZK 312338
TAFHOT
TAF
KHOT 312338Z 0100/0124 10006KT P6SM SKC
     FM010100 VRB03KT P6SM SCT250
     FM011400 10006KT P6SM SCT250=



000
FTUS44 KLZK 312338
TAFHRO
TAF
KHRO 312338Z 0100/0124 VRB03KT P6SM SCT250
     FM011400 33004KT P6SM SCT250=



000
FTUS44 KLZK 312338
TAFPBF
TAF
KPBF 312338Z 0100/0124 03006KT P6SM SKC
     FM010100 VRB03KT P6SM SCT250
     FM011400 06007KT P6SM SCT250=



000
FTUS44 KLZK 312338
TAFLIT
TAF
KLIT 312338Z 0100/0124 07005KT P6SM SKC
     FM010100 VRB03KT P6SM SCT250
     FM011400 08006KT P6SM SCT250=



000
FTUS44 KLZK 311919 CCA
TAFHRO
TAF COR
KHRO 311919Z 3118/0118 VRB04KT P6SM SCT120
     FM010100 28003KT P6SM SCT250
     FM011200 VRB03KT P6SM SCT250=



000
FTUS44 KLZK 311919 CCA
TAFLIT
TAF COR
KLIT 311919Z 3118/0118 08011KT P6SM FEW120 SCT250
     FM010000 06004KT P6SM SCT250
     FM011200 VRB03KT P6SM SKC=



000
FTUS44 KLZK 311919 CCA
TAFHOT
TAF COR
KHOT 311919Z 3118/0118 10008KT P6SM SCT120
     FM010100 08003KT P6SM SCT250
     FM011200 VRB03KT P6SM SKC=



000
FTUS44 KLZK 311919 CCA
TAFPBF
TAF COR
KPBF 311919Z 3118/0118 07011KT P6SM FEW250
     FM010000 02003KT P6SM SKC
     FM011200 VRB03KT P6SM SKC=



000
FTUS44 KLZK 311919 CCA
TAFHOT
TAF COR
KHOT 311919Z 3118/0118 10008KT P6SM SCT120
     FM010100 08003KT P6SM SCT250
     FM011200 VRB03KT P6SM SKC=



000
FTUS44 KLZK 311919 CCA
TAFLIT
TAF COR
KLIT 311919Z 3118/0118 08011KT P6SM FEW120 SCT250
     FM010000 06004KT P6SM SCT250
     FM011200 VRB03KT P6SM SKC=



000
FTUS44 KLZK 311919 CCA
TAFHRO
TAF COR
KHRO 311919Z 3118/0118 VRB04KT P6SM SCT120
     FM010100 28003KT P6SM SCT250
     FM011200 VRB03KT P6SM SCT250=



000
FTUS44 KLZK 311919 CCA
TAFPBF
TAF COR
KPBF 311919Z 3118/0118 07011KT P6SM FEW250
     FM010000 02003KT P6SM SKC
     FM011200 VRB03KT P6SM SKC=



000
FTUS44 KLZK 311336 AAB
TAFHRO
TAF AMD
KHRO 311336Z 3114/0112 32005KT P6SM SCT080
      TEMPO 3114/3115 5SM BR FEW080
     FM311500 07006KT P6SM SCT250
     FM010000 28003KT P6SM SCT250=



000
FTUS44 KLZK 311336 AAB
TAFHRO
TAF AMD
KHRO 311336Z 3114/0112 32005KT P6SM SCT080
      TEMPO 3114/3115 5SM BR FEW080
     FM311500 07006KT P6SM SCT250
     FM010000 28003KT P6SM SCT250=



000
FTUS44 KLZK 311233 AAA
TAFHRO
TAF AMD
KHRO 311233Z 3113/0112 32005KT 2SM BR BKN080
      TEMPO 3113/3115 1/2SM FG VV001
     FM311500 07006KT P6SM SCT250
     FM010000 28003KT P6SM SCT250=



000
FTUS44 KLZK 311127
TAFPBF
TAF
KPBF 311127Z 3112/0112 02005KT P6SM SCT120
     FM311400 04012G20KT P6SM SCT250
     FM010000 02003KT P6SM SKC=



000
FTUS44 KLZK 311127
TAFHRO
TAF
KHRO 311127Z 3112/0112 35005KT P6SM BKN080
     FM311500 07006KT P6SM SCT250
     FM010000 28003KT P6SM SCT250=



000
FTUS44 KLZK 311127
TAFLIT
TAF
KLIT 311127Z 3112/0112 02005KT P6SM SCT250
     FM311400 06010G17KT P6SM SCT250
     FM010000 34003KT P6SM SKC=



000
FTUS44 KLZK 311127
TAFHOT
TAF
KHOT 311127Z 3112/0112 06003KT P6SM SCT250
     FM311400 09009KT P6SM SCT250
     FM010000 08003KT P6SM SKC=



000
FTUS44 KLZK 311127
TAFLIT
TAF
KLIT 311127Z 3112/0112 02005KT P6SM SCT250
     FM311400 06010G17KT P6SM SCT250
     FM010000 34003KT P6SM SKC=



000
FTUS44 KLZK 311127
TAFHRO
TAF
KHRO 311127Z 3112/0112 35005KT P6SM BKN080
     FM311500 07006KT P6SM SCT250
     FM010000 28003KT P6SM SCT250=



000
FTUS44 KLZK 311127
TAFPBF
TAF
KPBF 311127Z 3112/0112 02005KT P6SM SCT120
     FM311400 04012G20KT P6SM SCT250
     FM010000 02003KT P6SM SKC=



000
FTUS44 KLZK 311127
TAFHOT
TAF
KHOT 311127Z 3112/0112 06003KT P6SM SCT250
     FM311400 09009KT P6SM SCT250
     FM010000 08003KT P6SM SKC=



000
FTUS44 KLZK 310531
TAFHOT
TAF
KHOT 310531Z 3106/0106 06003KT P6SM SCT250
     FM311400 07009KT P6SM SCT250
     FM010000 08003KT P6SM SKC=



000
FTUS44 KLZK 310531
TAFHRO
TAF
KHRO 310531Z 3106/0106 00000KT P6SM SCT250
     FM311200 13005KT P6SM SKC
     FM010000 27003KT P6SM SKC=



000
FTUS44 KLZK 310531
TAFPBF
TAF
KPBF 310531Z 3106/0106 01004KT P6SM SCT250
     FM311400 05010KT P6SM SCT250
     FM010000 03003KT P6SM SKC=



000
FTUS44 KLZK 310531
TAFLIT
TAF
KLIT 310531Z 3106/0106 02003KT P6SM SCT250
     FM311400 06009KT P6SM SCT250
     FM010000 09003KT P6SM SKC=



000
FTUS44 KLZK 302320
TAFHRO
TAF
KHRO 302320Z 3100/3124 09006KT P6SM SCT250
     FM311200 14005KT P6SM SKC=



000
FTUS44 KLZK 302320
TAFPBF
TAF
KPBF 302320Z 3100/3124 04010KT P6SM FEW050
     FM310130 VRB04KT P6SM SCT250
     FM311200 04005KT P6SM SKC=



000
FTUS44 KLZK 302320
TAFLIT
TAF
KLIT 302320Z 3100/3124 VRB05KT P6SM SCT050
     FM311200 06005KT P6SM SCT250=



000
FTUS44 KLZK 302320
TAFHOT
TAF
KHOT 302320Z 3100/3124 VRB06KT P6SM SCT250
     FM311200 09005KT P6SM SCT250=



    US Dept of Commerce
    National Oceanic and Atmospheric Administration
    National Weather Service
    1325 East West Highway
    Silver Spring, MD 20910
    Page Author: NWS Internet Services Team
Disclaimer
Information Quality
Credits
Glossary
Privacy Policy
Freedom of Information Act (FOIA)
About Us
Career Opportunities